Aérodrome :
LOGIN :

S'inscrire | Disclaimer

   EN    FR    IT 

 










Légende :    VFR   VFR Marginal   IFR   IFR Intensif   IFR Très Intensif
Visi : 
Plafond : 
>= 8 km
>= 3000ft
5 à 8 km
1000 à 3000 ft
1500m à 5 km
500 à 1000 ft
800 à 1500m
200 à 500 ft
< 800m
< 200 ft
Symboles :   Orages  Brouillard  Fortes neiges  Fortes précipitations  Vent > 20 kt
SIGMETs :   Divers  Orages  Givrage  Turbulence  Onde Orograph.  Cendres Volcan.







- Altitude de l'aérodrome : 465 ft
- Code IATA : LEJ


EDDP - Leipzig Halle

DERNIER METAR :
  • 241750Z 23007KT 9999 FEW040 07/04 Q1021 NOSIG

METARs EXPIRÉS :
  • 241720Z 23006KT 190V250 CAVOK 08/04 Q1021 NOSIG
  • 241650Z 23005KT 9999 FEW048 08/04 Q1022 NOSIG
  • 241620Z 24005KT 9999 FEW030 SCT047 09/04 Q1022 NOSIG
  • 241550Z 29006KT 270V330 9999 SCT033 BKN040 09/04 Q1022 NOSIG
  • 241520Z 32006KT 9999 BKN037 09/04 Q1022 NOSIG
  • 241450Z 28004KT 250V310 CAVOK 09/05 Q1022 NOSIG

TAF TAF EDDP
Valide du 24 à 18h jusqu'au 25 à 18h UTC


241700Z 2418/2518 30006KT 9999 FEW030
BECMG 2500/2503 25012KT
BECMG 2505/2509 27015G25KT
TEMPO 2506/2509 SHRA BKN012TCU
TEMPO 2509/2518 28020G30KT 3000 SHRAGS BKN015CB
PROB30
TEMPO 2511/2515 1400 TSGS BKN011CB
Pas de NOTAMs connus pour ce terrain.



MET'MAP, la Météo Aéronautique d'un coup d'oeil ! - Copyright ORBIFLY Décembre 2007 - Disclaimer

ORBIFLY MET'MAP TEAM :

Programmation & Développement : Alexandra Zaïnal
Conception & Développement : Baudouin d'Aumeries
Co-Programmation & Développement : Marc-Olivier Méhu
Soutien technique & logistique : Manuel Goepfert

Contact : metmap@orbifly.com




SOURCES & CREDITS :

   NOAA